Time;durP1;ratioP1;P1;durP2;ratioP2;P2;SDS_P1;SDS_P2;PMS_P1;PMS_P2;Temp;Humidity;BMP_temperature;BMP_pressure;BME280_temperature;BME280_humidity;BME280_pressure;Samples;Min_cycle;Max_cycle;Signal;HPM_P1;HPM_P2
2021/04/12 00:01:08;;;;;;;5.63;3.03;;;2.90;94.70;;;;;;5002457;28;20513;-40
2021/04/12 00:03:53;;;;;;;5.53;3.33;;;2.90;94.70;;;;;;4997906;28;20384;-38
2021/04/12 00:07:04;;;;;;;5.72;2.50;;;2.90;94.70;;;;;;5001284;28;20415;-40
2021/04/12 00:09:41;;;;;;;4.90;2.45;;;2.80;94.80;;;;;;4949202;28;20048;-40
2021/04/12 00:12:14;;;;;;;5.13;2.53;;;2.80;94.80;;;;;;4995878;28;20036;-40
2021/04/12 00:14:51;;;;;;;4.63;2.60;;;2.80;94.80;;;;;;5003789;28;20247;-39
2021/04/12 00:17:43;;;;;;;3.92;2.28;;;2.80;94.90;;;;;;4995553;28;20022;-39
2021/04/12 00:20:35;;;;;;;2.67;2.05;;;2.80;95.20;;;;;;4985616;28;20048;-39
2021/04/12 00:23:10;;;;;;;2.67;2.15;;;2.70;94.90;;;;;;4998206;28;20381;-37
2021/04/12 00:25:51;;;;;;;3.47;2.33;;;2.70;94.90;;;;;;4985477;28;20022;-39
2021/04/12 00:28:41;;;;;;;5.20;2.40;;;2.70;95.00;;;;;;4997564;28;20042;-40
2021/04/12 00:31:41;;;;;;;2.33;1.85;;;2.70;95.00;;;;;;4985598;28;20038;-38
2021/04/12 00:34:20;;;;;;;3.95;2.03;;;2.70;95.00;;;;;;4996758;28;20038;-40
2021/04/12 00:37:04;;;;;;;3.05;2.10;;;2.60;95.00;;;;;;4986969;28;20022;-39
2021/04/12 00:39:49;;;;;;;4.18;2.00;;;2.60;95.00;;;;;;4988944;28;20026;-38
2021/04/12 00:42:49;;;;;;;3.45;2.20;;;2.60;95.00;;;;;;4988251;28;20023;-40
2021/04/12 00:45:33;;;;;;;3.42;1.88;;;2.60;95.00;;;;;;4990510;28;20027;-38
2021/04/12 00:48:17;;;;;;;2.40;1.80;;;2.60;95.00;;;;;;4992102;28;20211;-39
2021/04/12 00:51:26;;;;;;;2.58;1.92;;;2.60;95.10;;;;;;4988209;28;20145;-38
2021/04/12 00:54:23;;;;;;;3.50;1.92;;;2.50;95.10;;;;;;4971315;28;20046;-38
2021/04/12 00:57:04;;;;;;;3.63;2.03;;;2.50;95.10;;;;;;4985833;28;20031;-38
2021/04/12 00:59:49;;;;;;;2.83;2.08;;;2.40;95.20;;;;;;4992445;28;20045;-39
2021/04/12 01:02:39;;;;;;;2.38;2.00;;;2.50;95.20;;;;;;5004824;28;20133;-38
2021/04/12 01:05:09;;;;;;;4.38;2.08;;;2.40;95.20;;;;;;4996557;28;20153;-39
2021/04/12 01:07:59;;;;;;;3.38;2.20;;;2.40;95.20;;;;;;4986225;28;20117;-38
2021/04/12 01:10:36;;;;;;;2.88;1.85;;;2.40;95.30;;;;;;4994011;28;20132;-38
2021/04/12 01:13:28;;;;;;;2.40;1.90;;;2.40;95.20;;;;;;5002377;28;20033;-39
2021/04/12 01:16:13;;;;;;;3.15;2.00;;;2.30;95.30;;;;;;4996043;28;20037;-38
2021/04/12 01:18:57;;;;;;;4.88;2.20;;;2.30;95.30;;;;;;5000450;28;20018;-37
2021/04/12 01:21:53;;;;;;;2.58;1.75;;;2.30;95.50;;;;;;4998672;28;20038;-40
2021/04/12 01:24:52;;;;;;;3.42;2.03;;;2.30;95.50;;;;;;4997143;28;20019;-39
2021/04/12 01:27:27;;;;;;;4.65;2.22;;;2.30;95.40;;;;;;4985243;28;20045;-39
2021/04/12 01:30:30;;;;;;;3.28;2.22;;;2.30;95.40;;;;;;4996400;28;20453;-36
2021/04/12 01:33:19;;;;;;;5.10;2.22;;;2.40;95.60;;;;;;4985579;28;20195;-36
2021/04/12 01:36:23;;;;;;;3.85;2.50;;;2.30;95.50;;;;;;4992778;28;20057;-38
2021/04/12 01:39:30;;;;;;;4.38;2.33;;;2.30;95.50;;;;;;5002889;28;20064;-38
2021/04/12 01:42:45;;;;;;;3.33;2.25;;;2.30;95.50;;;;;;4998382;28;20061;-39
2021/04/12 01:45:19;;;;;;;4.28;2.75;;;2.30;95.50;;;;;;4990975;28;20065;-39
2021/04/12 01:48:09;;;;;;;3.30;2.50;;;2.20;95.50;;;;;;5003108;28;20033;-39
2021/04/12 01:50:37;;;;;;;2.55;2.30;;;2.10;95.60;;;;;;4993080;28;20390;-39
2021/04/12 01:53:23;;;;;;;5.25;2.85;;;2.10;95.70;;;;;;5003592;28;20062;-39
2021/04/12 01:56:28;;;;;;;2.67;2.35;;;2.10;95.80;;;;;;4992154;28;20030;-39
2021/04/12 01:59:25;;;;;;;4.75;2.50;;;2.10;95.80;;;;;;4985348;28;20116;-39
2021/04/12 02:02:26;;;;;;;4.57;2.72;;;2.00;95.80;;;;;;4995761;28;20478;-39
2021/04/12 02:05:11;;;;;;;3.65;2.78;;;2.00;95.90;;;;;;4986227;28;20026;-39
2021/04/12 02:08:41;;;;;;;4.15;3.03;;;1.90;95.90;;;;;;4996245;28;20049;-39
2021/04/12 02:11:39;;;;;;;3.40;2.53;;;1.90;96.00;;;;;;4901514;29;20044;-37
2021/04/12 02:14:35;;;;;;;4.55;2.42;;;1.90;96.00;;;;;;4985294;28;20061;-39
2021/04/12 02:17:17;;;;;;;3.10;2.60;;;1.90;96.00;;;;;;4996641;28;20033;-39
2021/04/12 02:20:27;;;;;;;3.10;2.40;;;1.80;96.00;;;;;;4984870;28;20038;-39
2021/04/12 02:23:21;;;;;;;3.92;2.67;;;1.70;96.10;;;;;;4956401;28;20077;-40
2021/04/12 02:26:15;;;;;;;6.82;2.60;;;1.70;96.10;;;;;;5000822;28;20490;-37
2021/04/12 02:29:28;;;;;;;4.22;2.65;;;1.60;96.20;;;;;;5000908;28;20033;-39
2021/04/12 02:32:38;;;;;;;3.60;2.60;;;1.60;96.20;;;;;;4925896;28;20036;-40
2021/04/12 02:35:37;;;;;;;3.35;2.58;;;1.50;96.20;;;;;;4988408;28;20053;-40
2021/04/12 02:38:08;;;;;;;2.90;2.42;;;1.60;96.30;;;;;;4998535;28;20039;-40
2021/04/12 02:41:02;;;;;;;3.10;2.22;;;1.50;96.30;;;;;;5000869;28;20033;-40
2021/04/12 02:43:46;;;;;;;;;;;1.60;96.40;;;;;;4999445;28;20112;-39
2021/04/12 02:46:53;;;;;;;3.58;3.10;;;1.60;96.40;;;;;;4989502;28;19910;-40
2021/04/12 02:49:24;;;;;;;6.75;3.03;;;1.60;96.60;;;;;;5002056;28;20037;-39
2021/04/12 02:52:19;;;;;;;3.30;3.00;;;1.60;96.60;;;;;;5002132;28;20502;-40
2021/04/12 02:54:59;;;;;;;4.63;3.00;;;1.70;96.60;;;;;;4990759;28;20026;-39
2021/04/12 02:58:13;;;;;;;3.28;2.80;;;1.70;96.50;;;;;;4996083;28;20100;-40
2021/04/12 03:00:57;;;;;;;4.72;3.10;;;1.70;96.50;;;;;;4963712;28;20030;-39
2021/04/12 03:04:08;;;;;;;5.75;2.60;;;1.70;96.60;;;;;;4999816;28;20528;-39
2021/04/12 03:07:09;;;;;;;4.78;3.55;;;1.70;96.60;;;;;;4889471;29;20089;-38
2021/04/12 03:10:03;;;;;;;4.18;2.83;;;1.70;97.10;;;;;;4996539;28;20033;-40
2021/04/12 03:12:44;;;;;;;3.67;2.80;;;1.80;97.00;;;;;;4991533;28;20026;-37
2021/04/12 03:15:40;;;;;;;4.80;3.03;;;1.80;97.10;;;;;;4993582;28;20052;-38
2021/04/12 03:18:47;;;;;;;7.70;3.50;;;1.90;97.00;;;;;;4994837;28;20385;-38
2021/04/12 03:21:32;;;;;;;5.68;2.63;;;2.00;97.10;;;;;;4987416;28;20180;-38
2021/04/12 03:24:23;;;;;;;6.03;3.13;;;2.00;96.90;;;;;;4999554;28;20025;-38
2021/04/12 03:27:25;;;;;;;6.15;3.40;;;2.00;97.60;;;;;;4986981;28;20331;-39
2021/04/12 03:30:18;;;;;;;4.43;3.10;;;2.00;97.40;;;;;;4994082;28;20068;-38
2021/04/12 03:32:56;;;;;;;5.47;3.00;;;2.00;97.50;;;;;;5005204;28;20037;-39
2021/04/12 03:35:32;;;;;;;4.68;2.70;;;2.00;97.50;;;;;;4996340;28;20034;-38
2021/04/12 03:38:06;;;;;;;7.90;3.47;;;2.00;97.60;;;;;;5005565;28;20029;-37
2021/04/12 03:40:36;;;;;;;4.75;3.25;;;1.90;97.80;;;;;;4998921;28;20116;-39
2021/04/12 03:43:33;;;;;;;3.90;2.60;;;2.00;98.00;;;;;;5005216;28;20025;-38
2021/04/12 03:46:33;;;;;;;5.15;3.65;;;2.00;97.60;;;;;;4999187;28;20061;-39
2021/04/12 03:49:22;;;;;;;3.55;2.72;;;2.00;97.50;;;;;;4999177;28;20036;-34
2021/04/12 03:52:06;;;;;;;6.30;2.72;;;2.00;97.40;;;;;;5003466;28;20026;-39
2021/04/12 03:54:59;;;;;;;4.55;3.05;;;2.00;97.30;;;;;;4996385;28;20050;-37
2021/04/12 03:57:46;;;;;;;4.77;3.60;;;1.90;97.40;;;;;;4986761;28;20045;-39
2021/04/12 04:00:34;;;;;;;4.35;3.10;;;1.90;97.30;;;;;;4998757;28;20036;-38
2021/04/12 04:03:31;;;;;;;6.38;3.60;;;1.80;97.30;;;;;;4986119;28;20064;-38
2021/04/12 04:06:18;;;;;;;6.50;3.30;;;1.80;97.40;;;;;;4997421;28;20057;-38
2021/04/12 04:09:02;;;;;;;4.35;3.15;;;1.70;97.30;;;;;;4987615;28;20026;-39
2021/04/12 04:11:54;;;;;;;5.57;3.30;;;1.60;97.40;;;;;;4994907;28;20034;-39
2021/04/12 04:14:54;;;;;;;4.15;3.22;;;1.60;97.50;;;;;;5003627;28;20033;-39
2021/04/12 04:17:50;;;;;;;3.75;3.20;;;1.60;97.50;;;;;;5000537;28;20026;-38
2021/04/12 04:20:40;;;;;;;4.03;2.80;;;1.60;97.60;;;;;;4997067;28;20101;-39
2021/04/12 04:23:36;;;;;;;4.13;3.20;;;1.60;97.50;;;;;;5004333;28;20069;-38
2021/04/12 04:26:35;;;;;;;3.75;3.38;;;1.60;97.50;;;;;;4993162;28;20031;-38
2021/04/12 04:29:19;;;;;;;4.07;2.85;;;1.60;97.50;;;;;;5005556;28;20041;-39
2021/04/12 04:32:31;;;;;;;2.92;2.70;;;1.50;97.50;;;;;;4994172;28;20034;-39
2021/04/12 04:35:12;;;;;;;7.00;3.45;;;1.50;97.50;;;;;;4923050;29;20036;-39
2021/04/12 04:38:16;;;;;;;4.53;2.80;;;1.50;97.50;;;;;;4987891;28;20129;-39
2021/04/12 04:40:52;;;;;;;4.75;3.00;;;1.50;97.50;;;;;;4998389;28;20057;-38
2021/04/12 04:43:45;;;;;;;5.57;3.45;;;1.40;97.50;;;;;;4990206;28;20026;-39
2021/04/12 04:46:28;;;;;;;3.97;3.33;;;1.40;97.60;;;;;;4994353;28;20030;-37
2021/04/12 04:49:15;;;;;;;5.00;3.30;;;1.40;97.60;;;;;;4986573;28;20313;-39
2021/04/12 04:52:17;;;;;;;3.83;3.20;;;1.40;97.60;;;;;;4995692;28;20041;-38
2021/04/12 04:54:59;;;;;;;3.38;2.97;;;1.40;97.70;;;;;;4985712;28;20046;-39
2021/04/12 04:57:43;;;;;;;5.43;2.78;;;1.50;97.70;;;;;;4992933;28;20101;-40
2021/04/12 05:00:35;;;;;;;5.55;3.20;;;1.50;97.70;;;;;;5004426;28;20021;-37
2021/04/12 05:03:29;;;;;;;3.47;3.10;;;1.50;97.70;;;;;;4996415;28;20034;-37
2021/04/12 05:06:19;;;;;;;4.40;3.80;;;1.60;97.70;;;;;;4986177;28;20046;-37
2021/04/12 05:09:09;;;;;;;6.20;3.53;;;1.60;97.80;;;;;;4992906;28;20684;-38
2021/04/12 05:12:14;;;;;;;3.92;3.38;;;1.70;97.80;;;;;;4990974;28;20037;-39
2021/04/12 05:14:54;;;;;;;3.97;3.50;;;1.80;97.70;;;;;;4986619;28;20387;-38
2021/04/12 05:17:51;;;;;;;6.22;3.95;;;1.90;97.60;;;;;;4995637;28;20049;-40
2021/04/12 05:20:45;;;;;;;6.55;4.22;;;2.00;97.60;;;;;;4985267;28;20097;-40
2021/04/12 05:23:39;;;;;;;5.32;4.25;;;2.00;97.40;;;;;;4992649;28;20042;-39
2021/04/12 05:26:23;;;;;;;7.22;4.50;;;2.00;97.40;;;;;;5004490;28;20384;-41
2021/04/12 05:29:01;;;;;;;7.38;4.45;;;2.00;97.40;;;;;;4997696;28;20410;-43
2021/04/12 05:31:45;;;;;;;4.03;3.60;;;2.00;97.40;;;;;;4987716;28;20044;-37
2021/04/12 05:34:36;;;;;;;5.60;4.10;;;1.90;97.50;;;;;;4996921;28;20038;-38
2021/04/12 05:37:06;;;;;;;4.78;3.55;;;1.90;97.50;;;;;;4988282;28;20014;-39
2021/04/12 05:39:53;;;;;;;3.83;3.38;;;1.90;97.60;;;;;;4998848;28;20790;-37
2021/04/12 05:42:45;;;;;;;7.28;3.60;;;1.80;97.60;;;;;;5002448;28;20030;-39
2021/04/12 05:45:45;;;;;;;9.07;3.80;;;1.80;97.60;;;;;;4986455;28;20026;-40
2021/04/12 05:48:27;;;;;;;5.00;3.28;;;1.80;97.70;;;;;;4995671;28;20504;-40
2021/04/12 05:51:01;;;;;;;3.13;2.83;;;1.70;97.70;;;;;;5002760;28;20032;-38
2021/04/12 05:54:04;;;;;;;3.97;3.05;;;1.70;97.70;;;;;;4995301;28;20433;-40
2021/04/12 05:57:07;;;;;;;3.72;3.05;;;1.70;97.80;;;;;;4982088;28;20057;-39
2021/04/12 06:00:11;;;;;;;4.40;3.05;;;1.70;97.80;;;;;;4992501;28;20460;-37
2021/04/12 06:02:37;;;;;;;2.55;2.35;;;1.70;97.80;;;;;;4989430;28;20048;-40
2021/04/12 06:05:09;;;;;;;3.40;2.95;;;1.80;97.80;;;;;;4997532;28;20319;-42
2021/04/12 06:08:03;;;;;;;4.03;3.15;;;1.80;97.70;;;;;;5006865;28;20084;-40
2021/04/12 06:10:49;;;;;;;5.50;3.20;;;1.80;97.70;;;;;;4997043;28;20030;-39
2021/04/12 06:13:26;;;;;;;3.70;3.40;;;1.90;97.70;;;;;;5006054;28;20104;-39
2021/04/12 06:16:02;;;;;;;3.83;2.85;;;2.00;97.80;;;;;;4998904;28;20026;-39
2021/04/12 06:19:06;;;;;;;7.15;4.32;;;2.00;97.70;;;;;;5005363;28;20667;-38
2021/04/12 06:21:50;;;;;;;2.90;2.60;;;2.10;97.80;;;;;;4997823;28;20030;-35
2021/04/12 06:24:40;;;;;;;3.10;2.33;;;2.20;97.70;;;;;;4994966;28;20127;-38
2021/04/12 06:27:36;;;;;;;3.15;2.58;;;2.30;97.70;;;;;;4990093;28;20077;-33
2021/04/12 06:30:18;;;;;;;4.38;2.95;;;2.30;97.70;;;;;;5000504;28;20030;-36
2021/04/12 06:33:09;;;;;;;4.97;2.92;;;2.40;97.70;;;;;;4988563;28;20062;-36
2021/04/12 06:36:03;;;;;;;2.97;2.60;;;2.60;97.70;;;;;;5000671;28;20401;-38
2021/04/12 06:38:59;;;;;;;3.00;2.60;;;2.70;97.60;;;;;;4987335;28;20405;-39
2021/04/12 06:41:47;;;;;;;2.85;2.50;;;2.80;97.60;;;;;;4989857;28;20419;-38
2021/04/12 06:44:58;;;;;;;4.50;2.70;;;2.80;97.40;;;;;;4993870;28;20109;-37
2021/04/12 06:47:23;;;;;;;2.92;2.67;;;2.80;97.80;;;;;;5003208;28;20125;-39
2021/04/12 06:50:29;;;;;;;4.50;3.08;;;2.80;97.90;;;;;;5002460;28;20188;-40
2021/04/12 06:53:33;;;;;;;3.33;2.15;;;2.90;98.10;;;;;;5005743;28;20240;-39
2021/04/12 06:55:58;;;;;;;4.88;2.75;;;3.00;98.10;;;;;;4995364;28;20030;-37
2021/04/12 06:58:40;;;;;;;6.53;2.05;;;3.00;98.20;;;;;;5007080;28;20049;-40
2021/04/12 07:01:24;;;;;;;3.93;2.37;;;3.00;97.90;;;;;;4994901;28;20030;-38
2021/04/12 07:04:16;;;;;;;3.25;2.55;;;3.10;98.00;;;;;;5007690;28;20118;-39
2021/04/12 07:06:57;;;;;;;3.30;2.30;;;3.20;98.20;;;;;;4994457;28;20028;-38
2021/04/12 07:09:50;;;;;;;2.53;1.95;;;3.20;98.00;;;;;;5007831;28;20088;-39
2021/04/12 07:13:00;;;;;;;3.13;2.40;;;3.30;98.00;;;;;;4998813;28;20506;-38
2021/04/12 07:15:50;;;;;;;4.30;2.35;;;3.30;98.10;;;;;;4990208;28;20050;-39
2021/04/12 07:18:30;;;;;;;3.45;2.10;;;3.40;98.00;;;;;;4993804;28;20031;-39
2021/04/12 07:21:17;;;;;;;4.35;2.10;;;3.50;97.90;;;;;;4992532;28;20037;-39
2021/04/12 07:24:01;;;;;;;4.85;2.13;;;3.50;97.90;;;;;;4991255;28;20034;-40
2021/04/12 07:26:38;;;;;;;2.72;1.85;;;3.60;98.00;;;;;;4995607;28;20358;-40
2021/04/12 07:29:21;;;;;;;4.03;1.80;;;3.70;97.90;;;;;;4989662;28;20122;-39
2021/04/12 07:32:03;;;;;;;2.17;1.80;;;3.70;97.80;;;;;;4996645;28;20722;-40
2021/04/12 07:34:58;;;;;;;2.63;1.50;;;3.80;97.80;;;;;;4986112;28;20414;-40
2021/04/12 07:38:10;;;;;;;3.55;1.65;;;3.80;97.80;;;;;;4999110;28;20038;-40
2021/04/12 07:40:54;;;;;;;5.72;1.70;;;3.90;97.70;;;;;;4996369;28;20032;-40
2021/04/12 07:43:38;;;;;;;3.75;1.83;;;4.00;97.70;;;;;;4998084;28;20066;-40
2021/04/12 07:46:16;;;;;;;4.68;2.38;;;4.10;97.80;;;;;;4988319;28;20041;-39
2021/04/12 07:49:00;;;;;;;2.00;1.80;;;4.20;97.80;;;;;;4995505;28;20033;-39
2021/04/12 07:51:56;;;;;;;4.25;2.38;;;4.20;97.70;;;;;;5005387;28;20018;-39
2021/04/12 07:54:55;;;;;;;5.65;2.28;;;4.40;97.90;;;;;;4959541;28;20047;-39
2021/04/12 07:57:49;;;;;;;2.83;2.00;;;4.60;97.70;;;;;;4962843;28;20481;-37
2021/04/12 08:00:24;;;;;;;4.25;2.33;;;4.90;97.60;;;;;;4949149;28;20609;-38
2021/04/12 08:03:25;;;;;;;3.95;2.10;;;5.10;97.10;;;;;;4957405;28;20026;-38
2021/04/12 08:06:29;;;;;;;5.72;1.65;;;5.20;96.30;;;;;;4948616;28;20031;-39
2021/04/12 08:09:19;;;;;;;3.35;2.10;;;5.20;95.90;;;;;;4955511;28;20122;-37
2021/04/12 08:12:12;;;;;;;6.10;2.15;;;5.10;95.80;;;;;;4964013;28;20035;-39
2021/04/12 08:15:15;;;;;;;5.70;2.15;;;5.00;95.70;;;;;;4963619;28;20137;-37
2021/04/12 08:17:58;;;;;;;2.50;1.90;;;5.10;95.50;;;;;;4961785;28;20119;-37
2021/04/12 08:20:42;;;;;;;2.30;1.60;;;5.20;95.60;;;;;;4953258;28;20035;-41
2021/04/12 08:23:25;;;;;;;3.50;1.52;;;5.20;95.00;;;;;;4953800;28;20419;-39
2021/04/12 08:26:06;;;;;;;;;;;5.30;95.00;;;;;;4951502;28;20035;-39
2021/04/12 08:28:46;;;;;;;1.50;1.40;;;5.40;94.80;;;;;;4956214;28;19977;-40
2021/04/12 08:31:49;;;;;;;2.95;1.38;;;5.50;94.70;;;;;;4964033;28;20034;-38
2021/04/12 08:34:45;;;;;;;1.95;1.50;;;5.60;94.50;;;;;;4961824;28;20050;-39
2021/04/12 08:37:28;;;;;;;3.03;1.20;;;5.80;94.40;;;;;;4947440;28;20027;-39
2021/04/12 08:40:09;;;;;;;3.25;1.50;;;6.00;94.30;;;;;;4951208;28;20506;-39
2021/04/12 08:42:52;;;;;;;2.35;1.30;;;6.20;93.90;;;;;;4947504;28;20067;-39
2021/04/12 08:46:02;;;;;;;1.88;1.30;;;6.40;93.50;;;;;;4958101;28;20102;-40
2021/04/12 08:48:50;;;;;;;4.53;1.30;;;6.50;92.40;;;;;;4949524;28;20023;-39
2021/04/12 08:51:22;;;;;;;2.45;1.10;;;6.50;91.10;;;;;;4954314;28;20042;-38
2021/04/12 08:54:06;;;;;;;1.75;1.10;;;6.50;90.70;;;;;;4980870;28;20198;-40
2021/04/12 08:57:29;;;;;;;1.88;1.20;;;6.60;91.00;;;;;;4991829;28;20034;-39
2021/04/12 09:00:13;;;;;;;2.03;1.30;;;6.60;90.00;;;;;;4897961;29;20067;-38
2021/04/12 09:03:18;;;;;;;2.92;1.30;;;6.60;89.10;;;;;;4906648;29;20429;-37
2021/04/12 09:06:11;;;;;;;2.92;1.33;;;6.60;88.60;;;;;;4977997;28;20068;-36
2021/04/12 09:09:00;;;;;;;2.78;1.38;;;6.50;85.90;;;;;;5003995;28;20159;-39
2021/04/12 09:11:39;;;;;;;3.03;1.25;;;6.40;85.60;;;;;;4994064;28;20034;-37
2021/04/12 09:14:19;;;;;;;2.63;1.50;;;6.30;87.10;;;;;;5003737;28;20034;-39
2021/04/12 09:17:24;;;;;;;2.28;1.40;;;6.30;88.00;;;;;;4995764;28;20097;-39
2021/04/12 09:20:24;;;;;;;2.42;1.20;;;6.30;88.70;;;;;;4999487;28;20495;-36
2021/04/12 09:23:17;;;;;;;4.45;1.40;;;6.40;90.00;;;;;;5002621;28;20018;-37
2021/04/12 09:25:43;;;;;;;2.30;1.40;;;6.50;90.30;;;;;;4994197;28;20058;-39
2021/04/12 09:28:35;;;;;;;2.85;1.83;;;6.60;90.70;;;;;;5003816;28;20430;-40
2021/04/12 09:31:00;;;;;;;3.07;1.50;;;6.70;90.80;;;;;;4999573;28;20061;-38
2021/04/12 09:33:55;;;;;;;2.40;1.77;;;6.80;90.70;;;;;;4989402;28;20343;-38
2021/04/12 09:36:54;;;;;;;4.72;2.00;;;7.00;90.10;;;;;;4998093;28;20041;-38
2021/04/12 09:39:45;;;;;;;5.53;2.10;;;7.00;90.10;;;;;;4989272;28;20022;-35
2021/04/12 09:42:41;;;;;;;3.95;2.40;;;7.10;90.10;;;;;;5001617;28;20168;-39
2021/04/12 09:45:47;;;;;;;3.78;2.05;;;7.10;90.40;;;;;;5006342;28;20032;-39
2021/04/12 09:48:56;;;;;;;3.38;2.22;;;7.20;90.40;;;;;;5003962;28;20033;-39
2021/04/12 09:51:40;;;;;;;4.53;2.65;;;7.20;90.40;;;;;;5000246;28;20466;-38
2021/04/12 09:54:30;;;;;;;3.47;2.28;;;7.30;90.50;;;;;;5007099;28;20471;-39
2021/04/12 09:56:59;;;;;;;3.58;2.47;;;7.30;90.50;;;;;;4996208;28;20074;-39
2021/04/12 10:00:13;;;;;;;3.28;2.42;;;7.30;90.20;;;;;;4989148;28;20038;-38
2021/04/12 10:03:00;;;;;;;6.32;2.80;;;7.20;90.30;;;;;;4982789;28;20034;-37
2021/04/12 10:05:54;;;;;;;4.13;2.90;;;7.20;90.20;;;;;;5007475;28;20057;-38
2021/04/12 10:08:32;;;;;;;6.35;2.70;;;7.10;90.30;;;;;;5002791;28;20105;-37
2021/04/12 10:11:08;;;;;;;6.38;3.10;;;7.10;90.20;;;;;;5007253;28;20033;-35
2021/04/12 10:13:42;;;;;;;3.35;3.05;;;7.00;90.20;;;;;;4998097;28;20045;-38
2021/04/12 10:16:24;;;;;;;6.85;3.05;;;7.00;90.30;;;;;;5006653;28;20041;-38
2021/04/12 10:19:16;;;;;;;3.97;2.70;;;7.00;90.10;;;;;;4998484;28;20033;-39
2021/04/12 10:21:53;;;;;;;3.92;2.70;;;7.00;89.40;;;;;;5004820;28;20046;-39
2021/04/12 10:24:31;;;;;;;2.83;2.40;;;7.00;90.00;;;;;;5000706;28;20049;-36
2021/04/12 10:27:07;;;;;;;2.00;1.80;;;7.10;89.70;;;;;;5003277;28;20504;-37
2021/04/12 10:29:43;;;;;;;1.30;1.20;;;7.20;88.80;;;;;;5007675;28;20068;-38
2021/04/12 10:32:11;;;;;;;1.20;0.98;;;7.00;89.20;;;;;;5003527;28;20031;-38
2021/04/12 10:34:44;;;;;;;0.82;0.80;;;6.80;89.40;;;;;;5000245;28;20053;-39
2021/04/12 10:37:22;;;;;;;1.48;0.80;;;6.60;90.00;;;;;;5004380;28;20029;-38
2021/04/12 10:40:00;;;;;;;0.90;0.90;;;6.40;90.40;;;;;;4997488;28;20105;-39
2021/04/12 10:42:37;;;;;;;0.82;0.80;;;6.30;90.80;;;;;;4991916;28;20019;-39
2021/04/12 10:45:23;;;;;;;2.25;1.20;;;6.10;91.00;;;;;;4995250;28;20419;-38
2021/04/12 10:48:05;;;;;;;1.38;0.95;;;6.00;91.20;;;;;;4992942;28;20422;-37
2021/04/12 10:50:53;;;;;;;1.95;1.17;;;5.90;91.30;;;;;;4991922;28;20030;-39
2021/04/12 10:53:49;;;;;;;1.23;0.90;;;5.80;91.30;;;;;;4995597;28;20046;-38
2021/04/12 10:56:32;;;;;;;3.65;0.90;;;5.70;91.40;;;;;;4997404;28;20029;-39
2021/04/12 10:59:37;;;;;;;0.80;0.80;;;5.60;91.60;;;;;;5000144;28;20389;-39
2021/04/12 11:02:23;;;;;;;3.00;1.65;;;5.70;91.70;;;;;;5004537;28;20478;-39
2021/04/12 11:04:54;;;;;;;1.67;1.30;;;5.70;91.90;;;;;;5003091;28;20026;-39
2021/04/12 11:07:32;;;;;;;1.38;1.10;;;5.80;91.70;;;;;;5002336;28;20033;-39
2021/04/12 11:10:15;;;;;;;1.35;1.23;;;5.90;91.60;;;;;;4994843;28;20030;-39
2021/04/12 11:13:10;;;;;;;;;;;6.10;91.70;;;;;;5001629;28;20033;-39
2021/04/12 11:16:14;;;;;;;2.33;1.08;;;6.30;91.20;;;;;;4978697;28;19920;-39
2021/04/12 11:19:11;;;;;;;1.00;0.90;;;6.50;91.00;;;;;;5001266;28;20196;-39
2021/04/12 11:21:42;;;;;;;1.02;0.90;;;6.60;88.90;;;;;;4991286;28;20058;-39
2021/04/12 11:24:33;;;;;;;2.40;1.02;;;6.70;88.20;;;;;;4993457;28;20048;-35
2021/04/12 11:27:26;;;;;;;1.92;1.50;;;6.80;89.60;;;;;;4989559;28;20158;-36
2021/04/12 11:30:27;;;;;;;2.20;1.73;;;7.00;88.60;;;;;;4997478;28;20029;-38
2021/04/12 11:33:04;;;;;;;1.33;1.23;;;7.20;88.50;;;;;;4947943;28;20050;-39
2021/04/12 11:35:43;;;;;;;1.85;1.70;;;7.30;89.70;;;;;;4999423;28;20029;-38
2021/04/12 11:38:13;;;;;;;2.00;1.90;;;7.50;89.90;;;;;;4999265;28;20140;-40
2021/04/12 11:40:57;;;;;;;2.17;1.92;;;7.80;89.40;;;;;;4999274;28;20540;-41
2021/04/12 11:43:28;;;;;;;1.90;1.80;;;8.10;89.00;;;;;;5007355;28;20049;-38
2021/04/12 11:46:22;;;;;;;1.95;1.50;;;8.20;87.90;;;;;;4999430;28;20034;-39
2021/04/12 11:48:52;;;;;;;2.55;1.77;;;8.30;87.90;;;;;;4987012;28;20026;-36
2021/04/12 11:51:44;;;;;;;1.77;1.42;;;8.50;86.30;;;;;;4998831;28;20034;-39
2021/04/12 11:54:10;;;;;;;2.25;1.48;;;8.60;86.10;;;;;;4987517;28;20061;-39
2021/04/12 11:56:45;;;;;;;2.05;1.70;;;8.80;85.40;;;;;;4997798;28;20041;-40
2021/04/12 11:59:38;;;;;;;1.73;1.55;;;9.00;83.10;;;;;;4987749;28;20110;-39
2021/04/12 12:02:21;;;;;;;1.57;1.43;;;9.10;83.40;;;;;;4997719;28;20023;-40
2021/04/12 12:04:54;;;;;;;2.60;1.60;;;9.20;83.80;;;;;;4987930;28;20275;-37
2021/04/12 12:07:42;;;;;;;2.42;1.55;;;9.30;82.80;;;;;;4997798;28;20029;-38
2021/04/12 12:10:37;;;;;;;1.77;1.00;;;9.40;82.20;;;;;;4988378;28;20117;-39
2021/04/12 12:13:28;;;;;;;1.58;1.20;;;9.30;82.10;;;;;;4993380;28;20121;-39
2021/04/12 12:16:04;;;;;;;3.28;1.70;;;9.20;82.60;;;;;;4992833;28;20430;-40
2021/04/12 12:18:48;;;;;;;2.25;1.83;;;9.00;79.60;;;;;;4990776;28;20034;-44
2021/04/12 12:21:25;;;;;;;2.97;1.58;;;8.80;77.90;;;;;;4994130;28;20120;-36
2021/04/12 12:24:19;;;;;;;2.40;1.45;;;8.60;80.30;;;;;;4989412;28;20032;-38
2021/04/12 12:26:50;;;;;;;1.92;1.27;;;8.60;80.50;;;;;;4996857;28;20052;-38
2021/04/12 12:29:21;;;;;;;2.85;1.25;;;8.60;80.00;;;;;;4986783;28;20117;-39
2021/04/12 12:31:52;;;;;;;2.40;1.67;;;8.60;80.10;;;;;;4995472;28;20073;-40
2021/04/12 12:34:38;;;;;;;4.53;1.67;;;8.50;78.90;;;;;;4988541;28;20060;-39
2021/04/12 12:37:38;;;;;;;1.70;1.60;;;8.40;80.00;;;;;;4996498;28;20033;-38
2021/04/12 12:40:14;;;;;;;2.70;1.50;;;8.30;80.80;;;;;;4989148;28;20076;-39
2021/04/12 12:42:45;;;;;;;1.90;1.58;;;8.10;82.30;;;;;;4993073;28;20105;-37
2021/04/12 12:45:22;;;;;;;2.03;1.50;;;7.80;84.40;;;;;;5006234;28;20370;-37
2021/04/12 12:47:51;;;;;;;1.92;1.33;;;7.40;86.60;;;;;;4992660;28;20530;-38
2021/04/12 12:50:28;;;;;;;2.47;1.42;;;7.00;87.00;;;;;;5005575;28;20429;-39
2021/04/12 12:53:01;;;;;;;3.13;1.27;;;6.60;88.40;;;;;;4993066;28;20108;-38
2021/04/12 12:55:29;;;;;;;;;;;6.30;89.90;;;;;;5006372;28;20030;-38
2021/04/12 12:57:56;;;;;;;2.90;2.00;;;6.20;90.20;;;;;;4993092;28;19909;-39
2021/04/12 13:00:21;;;;;;;2.47;1.55;;;5.90;90.40;;;;;;5005680;28;20025;-39
2021/04/12 13:02:48;;;;;;;2.17;1.40;;;5.80;90.20;;;;;;4995951;28;20492;-39
2021/04/12 13:05:23;;;;;;;1.85;1.40;;;5.70;90.10;;;;;;5002481;28;20034;-39
2021/04/12 13:07:50;;;;;;;1.88;1.63;;;5.80;90.40;;;;;;4997353;28;20033;-37
2021/04/12 13:10:27;;;;;;;3.95;1.70;;;5.80;90.10;;;;;;5001564;28;20080;-40
2021/04/12 13:12:54;;;;;;;3.75;1.70;;;5.90;90.10;;;;;;4997117;28;20505;-38
2021/04/12 13:15:34;;;;;;;2.63;1.58;;;6.10;89.30;;;;;;5001080;28;20041;-39
2021/04/12 13:18:21;;;;;;;2.53;1.30;;;6.20;88.30;;;;;;4997806;28;20490;-39
2021/04/12 13:20:49;;;;;;;1.50;1.02;;;6.30;88.90;;;;;;5002263;28;20034;-39
2021/04/12 13:23:26;;;;;;;2.65;1.30;;;6.40;89.60;;;;;;4997955;28;20173;-39
2021/04/12 13:25:57;;;;;;;1.42;1.33;;;6.50;90.00;;;;;;5001451;28;20504;-37
2021/04/12 13:28:22;;;;;;;2.72;1.40;;;6.50;90.00;;;;;;4998060;28;20030;-37
2021/04/12 13:31:12;;;;;;;2.13;1.40;;;6.50;87.90;;;;;;4999810;28;20106;-38
2021/04/12 13:33:40;;;;;;;3.50;1.48;;;6.30;87.30;;;;;;4997047;28;20030;-40
2021/04/12 13:36:15;;;;;;;1.70;1.02;;;6.10;87.30;;;;;;5001150;28;20037;-39
2021/04/12 13:38:41;;;;;;;2.28;1.10;;;6.10;88.50;;;;;;4997654;28;20690;-38
2021/04/12 13:41:16;;;;;;;1.08;0.98;;;6.20;89.00;;;;;;4988861;28;20030;-38
2021/04/12 13:43:45;;;;;;;1.33;0.80;;;6.30;89.10;;;;;;4990278;28;20037;-35
2021/04/12 13:46:17;;;;;;;3.33;1.10;;;6.50;89.30;;;;;;4998183;28;20039;-37
2021/04/12 13:48:59;;;;;;;1.88;0.90;;;6.60;89.80;;;;;;5000803;28;20041;-41
2021/04/12 13:51:30;;;;;;;1.13;1.03;;;6.70;89.70;;;;;;5000264;28;20067;-38
2021/04/12 13:54:24;;;;;;;1.02;0.80;;;6.80;89.80;;;;;;4999340;28;20441;-38
2021/04/12 13:56:52;;;;;;;2.40;1.40;;;6.80;89.80;;;;;;5000757;28;20026;-37
2021/04/12 13:59:21;;;;;;;3.10;1.80;;;6.70;90.10;;;;;;4996866;28;20015;-36
2021/04/12 14:01:53;;;;;;;2.75;1.38;;;6.70;90.30;;;;;;4990056;28;20482;-37
2021/04/12 14:04:22;;;;;;;2.80;1.33;;;6.70;90.40;;;;;;4990298;28;20025;-38
2021/04/12 14:07:19;;;;;;;3.47;1.75;;;6.70;90.40;;;;;;4991218;28;20061;-39
2021/04/12 14:09:49;;;;;;;2.97;1.40;;;6.80;90.40;;;;;;4941781;28;20065;-35
2021/04/12 14:12:26;;;;;;;2.97;1.38;;;6.90;90.10;;;;;;4998912;28;20116;-39
2021/04/12 14:15:04;;;;;;;1.80;1.27;;;7.00;89.80;;;;;;4992671;28;20096;-38
2021/04/12 14:17:36;;;;;;;2.13;1.33;;;7.20;88.10;;;;;;5000511;28;20026;-39
2021/04/12 14:20:14;;;;;;;1.65;1.20;;;7.40;88.30;;;;;;4997409;28;20088;-38
2021/04/12 14:22:49;;;;;;;3.20;1.30;;;7.50;88.10;;;;;;5000446;28;20032;-39
2021/04/12 14:25:39;;;;;;;1.92;1.58;;;7.70;87.50;;;;;;5003383;28;20026;-37
2021/04/12 14:28:14;;;;;;;2.65;1.40;;;7.90;86.50;;;;;;4989778;28;20034;-37
2021/04/12 14:30:44;;;;;;;2.35;1.25;;;8.10;85.80;;;;;;4997650;28;20038;-39
2021/04/12 14:33:14;;;;;;;2.13;1.30;;;8.30;85.70;;;;;;5003086;28;20046;-39
2021/04/12 14:35:43;;;;;;;2.90;1.50;;;8.40;82.70;;;;;;5003271;28;20646;-38
2021/04/12 14:38:12;;;;;;;3.03;1.65;;;8.60;82.20;;;;;;4993018;28;20445;-39